sensor_id;sensor_type;location;lat;lon;timestamp;temperature;humidity
15705;DHT22;7952;48.396;12.806;2023-02-01T00:01:49;7.10;55.10
15705;DHT22;7952;48.396;12.806;2023-02-01T00:04:15;7.10;55.10
15705;DHT22;7952;48.396;12.806;2023-02-01T00:06:41;7.10;55.20
15705;DHT22;7952;48.396;12.806;2023-02-01T00:09:06;7.10;55.10
15705;DHT22;7952;48.396;12.806;2023-02-01T00:11:33;7.10;55.10
15705;DHT22;7952;48.396;12.806;2023-02-01T00:13:58;7.10;55.10
15705;DHT22;7952;48.396;12.806;2023-02-01T00:16:26;7.10;55.10
15705;DHT22;7952;48.396;12.806;2023-02-01T00:18:58;7.10;55.20
15705;DHT22;7952;48.396;12.806;2023-02-01T00:21:24;7.10;55.20
15705;DHT22;7952;48.396;12.806;2023-02-01T00:23:49;7.10;55.20
15705;DHT22;7952;48.396;12.806;2023-02-01T00:26:23;7.10;55.20
15705;DHT22;7952;48.396;12.806;2023-02-01T00:28:50;7.10;55.20
15705;DHT22;7952;48.396;12.806;2023-02-01T00:31:16;7.10;55.20
15705;DHT22;7952;48.396;12.806;2023-02-01T00:33:41;7.10;55.30
15705;DHT22;7952;48.396;12.806;2023-02-01T00:36:08;7.10;55.20
15705;DHT22;7952;48.396;12.806;2023-02-01T00:38:37;7.10;55.20
15705;DHT22;7952;48.396;12.806;2023-02-01T00:41:04;7.10;55.20
15705;DHT22;7952;48.396;12.806;2023-02-01T00:43:31;7.10;55.20
15705;DHT22;7952;48.396;12.806;2023-02-01T00:45:57;7.10;55.20
15705;DHT22;7952;48.396;12.806;2023-02-01T00:48:23;7.10;55.30
15705;DHT22;7952;48.396;12.806;2023-02-01T00:50:49;7.20;55.40
15705;DHT22;7952;48.396;12.806;2023-02-01T00:53:14;7.10;55.30
15705;DHT22;7952;48.396;12.806;2023-02-01T00:55:40;7.10;55.30
15705;DHT22;7952;48.396;12.806;2023-02-01T00:58:05;7.20;55.40
15705;DHT22;7952;48.396;12.806;2023-02-01T01:00:34;7.10;55.30
15705;DHT22;7952;48.396;12.806;2023-02-01T01:03:00;7.20;55.30
15705;DHT22;7952;48.396;12.806;2023-02-01T01:05:25;7.20;55.40
15705;DHT22;7952;48.396;12.806;2023-02-01T01:07:53;7.20;55.40
15705;DHT22;7952;48.396;12.806;2023-02-01T01:10:19;7.20;55.40
15705;DHT22;7952;48.396;12.806;2023-02-01T01:12:44;7.20;55.40
15705;DHT22;7952;48.396;12.806;2023-02-01T01:15:10;7.20;55.90
15705;DHT22;7952;48.396;12.806;2023-02-01T01:17:36;7.20;55.40
15705;DHT22;7952;48.396;12.806;2023-02-01T01:20:02;7.20;55.40
15705;DHT22;7952;48.396;12.806;2023-02-01T01:22:28;7.20;55.40
15705;DHT22;7952;48.396;12.806;2023-02-01T01:24:53;7.20;55.40
15705;DHT22;7952;48.396;12.806;2023-02-01T01:27:19;7.20;55.40
15705;DHT22;7952;48.396;12.806;2023-02-01T01:29:49;7.20;55.40
15705;DHT22;7952;48.396;12.806;2023-02-01T01:32:14;7.20;55.40
15705;DHT22;7952;48.396;12.806;2023-02-01T01:34:40;7.20;55.40
15705;DHT22;7952;48.396;12.806;2023-02-01T01:37:05;7.20;55.50
15705;DHT22;7952;48.396;12.806;2023-02-01T01:39:31;7.20;55.40
15705;DHT22;7952;48.396;12.806;2023-02-01T01:41:56;7.20;55.40
15705;DHT22;7952;48.396;12.806;2023-02-01T01:45:01;7.20;55.40
15705;DHT22;7952;48.396;12.806;2023-02-01T01:47:33;7.20;55.50
15705;DHT22;7952;48.396;12.806;2023-02-01T01:50:01;7.20;55.50
15705;DHT22;7952;48.396;12.806;2023-02-01T01:52:27;7.20;55.50
15705;DHT22;7952;48.396;12.806;2023-02-01T01:54:53;7.20;55.50
15705;DHT22;7952;48.396;12.806;2023-02-01T01:57:32;7.20;55.50
15705;DHT22;7952;48.396;12.806;2023-02-01T02:00:11;7.20;55.50
15705;DHT22;7952;48.396;12.806;2023-02-01T02:02:39;7.20;55.50
15705;DHT22;7952;48.396;12.806;2023-02-01T02:05:06;7.20;55.50
15705;DHT22;7952;48.396;12.806;2023-02-01T02:07:41;7.20;55.50
15705;DHT22;7952;48.396;12.806;2023-02-01T02:10:10;7.20;55.50
15705;DHT22;7952;48.396;12.806;2023-02-01T02:12:41;7.20;55.60
15705;DHT22;7952;48.396;12.806;2023-02-01T02:15:09;7.20;55.60
15705;DHT22;7952;48.396;12.806;2023-02-01T02:17:58;7.20;56.20
15705;DHT22;7952;48.396;12.806;2023-02-01T02:23:36;7.20;55.60
15705;DHT22;7952;48.396;12.806;2023-02-01T02:26:14;7.20;55.60
15705;DHT22;7952;48.396;12.806;2023-02-01T02:37:51;7.20;55.60
15705;DHT22;7952;48.396;12.806;2023-02-01T02:40:31;7.20;55.90
15705;DHT22;7952;48.396;12.806;2023-02-01T02:43:22;7.20;55.60
15705;DHT22;7952;48.396;12.806;2023-02-01T02:46:25;7.20;55.60
15705;DHT22;7952;48.396;12.806;2023-02-01T02:49:19;7.30;55.70
15705;DHT22;7952;48.396;12.806;2023-02-01T02:51:50;7.20;55.60
15705;DHT22;7952;48.396;12.806;2023-02-01T02:54:40;7.30;55.70
15705;DHT22;7952;48.396;12.806;2023-02-01T02:57:20;7.20;56.30
15705;DHT22;7952;48.396;12.806;2023-02-01T03:00:09;7.20;55.70
15705;DHT22;7952;48.396;12.806;2023-02-01T03:02:54;7.20;55.70
15705;DHT22;7952;48.396;12.806;2023-02-01T03:05:44;7.20;55.70
15705;DHT22;7952;48.396;12.806;2023-02-01T03:13:27;7.20;55.80
15705;DHT22;7952;48.396;12.806;2023-02-01T03:18:52;7.20;55.80
15705;DHT22;7952;48.396;12.806;2023-02-01T03:21:32;7.20;55.80
15705;DHT22;7952;48.396;12.806;2023-02-01T03:24:03;7.20;55.80
15705;DHT22;7952;48.396;12.806;2023-02-01T03:26:31;7.20;55.80
15705;DHT22;7952;48.396;12.806;2023-02-01T03:29:05;7.20;55.80
15705;DHT22;7952;48.396;12.806;2023-02-01T03:31:34;7.20;55.80
15705;DHT22;7952;48.396;12.806;2023-02-01T03:33:59;7.20;55.90
15705;DHT22;7952;48.396;12.806;2023-02-01T03:36:43;7.10;55.80
15705;DHT22;7952;48.396;12.806;2023-02-01T03:44:17;7.10;55.90
15705;DHT22;7952;48.396;12.806;2023-02-01T03:49:37;7.10;55.90
15705;DHT22;7952;48.396;12.806;2023-02-01T03:52:06;7.10;55.90
15705;DHT22;7952;48.396;12.806;2023-02-01T03:54:35;7.10;55.90
15705;DHT22;7952;48.396;12.806;2023-02-01T03:57:05;7.10;55.90
15705;DHT22;7952;48.396;12.806;2023-02-01T03:59:32;7.10;56.00
15705;DHT22;7952;48.396;12.806;2023-02-01T04:01:57;7.10;55.90
15705;DHT22;7952;48.396;12.806;2023-02-01T04:04:23;7.10;56.00
15705;DHT22;7952;48.396;12.806;2023-02-01T04:06:49;7.20;56.00
15705;DHT22;7952;48.396;12.806;2023-02-01T04:09:15;7.10;55.90
15705;DHT22;7952;48.396;12.806;2023-02-01T04:11:41;7.10;55.90
15705;DHT22;7952;48.396;12.806;2023-02-01T04:14:07;7.10;55.90
15705;DHT22;7952;48.396;12.806;2023-02-01T04:16:33;7.10;55.90
15705;DHT22;7952;48.396;12.806;2023-02-01T04:18:59;7.10;55.90
15705;DHT22;7952;48.396;12.806;2023-02-01T04:21:25;7.10;55.90
15705;DHT22;7952;48.396;12.806;2023-02-01T04:23:52;7.10;56.00
15705;DHT22;7952;48.396;12.806;2023-02-01T04:26:18;7.10;56.00
15705;DHT22;7952;48.396;12.806;2023-02-01T04:28:44;7.10;56.00
15705;DHT22;7952;48.396;12.806;2023-02-01T04:31:16;7.10;56.00
15705;DHT22;7952;48.396;12.806;2023-02-01T04:33:42;7.10;56.00
15705;DHT22;7952;48.396;12.806;2023-02-01T04:36:08;7.10;56.00
15705;DHT22;7952;48.396;12.806;2023-02-01T04:38:33;7.10;56.10
15705;DHT22;7952;48.396;12.806;2023-02-01T04:40:59;7.10;56.10
15705;DHT22;7952;48.396;12.806;2023-02-01T04:43:25;7.10;56.10
15705;DHT22;7952;48.396;12.806;2023-02-01T04:45:51;7.10;56.10
15705;DHT22;7952;48.396;12.806;2023-02-01T04:48:18;7.10;56.10
15705;DHT22;7952;48.396;12.806;2023-02-01T04:50:45;7.10;56.10
15705;DHT22;7952;48.396;12.806;2023-02-01T04:53:15;7.10;56.10
15705;DHT22;7952;48.396;12.806;2023-02-01T04:55:42;7.10;56.10
15705;DHT22;7952;48.396;12.806;2023-02-01T04:58:08;7.10;56.10
15705;DHT22;7952;48.396;12.806;2023-02-01T05:00:34;7.10;56.10
15705;DHT22;7952;48.396;12.806;2023-02-01T05:02:59;7.10;56.10
15705;DHT22;7952;48.396;12.806;2023-02-01T05:05:26;7.00;56.10
15705;DHT22;7952;48.396;12.806;2023-02-01T05:07:52;7.10;56.20
15705;DHT22;7952;48.396;12.806;2023-02-01T05:10:17;7.10;56.20
15705;DHT22;7952;48.396;12.806;2023-02-01T05:12:45;7.00;56.10
15705;DHT22;7952;48.396;12.806;2023-02-01T05:15:30;7.00;56.10
15705;DHT22;7952;48.396;12.806;2023-02-01T05:17:56;7.00;56.10
15705;DHT22;7952;48.396;12.806;2023-02-01T05:20:22;7.00;56.20
15705;DHT22;7952;48.396;12.806;2023-02-01T05:22:47;7.00;56.20
15705;DHT22;7952;48.396;12.806;2023-02-01T05:25:13;7.00;56.20
15705;DHT22;7952;48.396;12.806;2023-02-01T05:27:38;7.00;56.20
15705;DHT22;7952;48.396;12.806;2023-02-01T05:30:05;7.00;56.30
15705;DHT22;7952;48.396;12.806;2023-02-01T05:32:31;6.90;56.20
15705;DHT22;7952;48.396;12.806;2023-02-01T05:34:56;7.00;56.30
15705;DHT22;7952;48.396;12.806;2023-02-01T05:37:22;6.90;56.20
15705;DHT22;7952;48.396;12.806;2023-02-01T05:39:48;7.00;56.30
15705;DHT22;7952;48.396;12.806;2023-02-01T05:42:13;7.00;56.30
15705;DHT22;7952;48.396;12.806;2023-02-01T05:44:39;7.00;56.30
15705;DHT22;7952;48.396;12.806;2023-02-01T05:47:04;6.90;56.20
15705;DHT22;7952;48.396;12.806;2023-02-01T05:49:30;6.90;56.30
15705;DHT22;7952;48.396;12.806;2023-02-01T05:51:55;6.90;56.30
15705;DHT22;7952;48.396;12.806;2023-02-01T05:54:21;7.00;56.40
15705;DHT22;7952;48.396;12.806;2023-02-01T05:56:46;7.00;56.40
15705;DHT22;7952;48.396;12.806;2023-02-01T05:59:12;7.00;56.40
15705;DHT22;7952;48.396;12.806;2023-02-01T06:01:38;6.90;56.30
15705;DHT22;7952;48.396;12.806;2023-02-01T06:04:03;7.00;56.40
15705;DHT22;7952;48.396;12.806;2023-02-01T06:06:29;7.00;56.40
15705;DHT22;7952;48.396;12.806;2023-02-01T06:08:54;7.00;56.40
15705;DHT22;7952;48.396;12.806;2023-02-01T06:11:20;7.00;56.40
15705;DHT22;7952;48.396;12.806;2023-02-01T06:13:45;7.00;56.40
15705;DHT22;7952;48.396;12.806;2023-02-01T06:16:11;7.00;56.40
15705;DHT22;7952;48.396;12.806;2023-02-01T06:18:36;7.00;56.40
15705;DHT22;7952;48.396;12.806;2023-02-01T06:21:03;7.00;56.40
15705;DHT22;7952;48.396;12.806;2023-02-01T06:23:29;7.00;56.40
15705;DHT22;7952;48.396;12.806;2023-02-01T06:26:06;7.00;56.40
15705;DHT22;7952;48.396;12.806;2023-02-01T06:28:34;7.00;56.40
15705;DHT22;7952;48.396;12.806;2023-02-01T06:31:05;7.00;56.40
15705;DHT22;7952;48.396;12.806;2023-02-01T06:33:32;7.10;56.50
15705;DHT22;7952;48.396;12.806;2023-02-01T06:35:59;7.10;56.50
15705;DHT22;7952;48.396;12.806;2023-02-01T06:38:25;7.10;56.50
15705;DHT22;7952;48.396;12.806;2023-02-01T06:40:55;7.10;56.40
15705;DHT22;7952;48.396;12.806;2023-02-01T06:43:22;7.10;56.40
15705;DHT22;7952;48.396;12.806;2023-02-01T06:45:48;7.10;56.40
15705;DHT22;7952;48.396;12.806;2023-02-01T06:48:13;7.10;56.40
15705;DHT22;7952;48.396;12.806;2023-02-01T06:50:39;7.10;56.40
15705;DHT22;7952;48.396;12.806;2023-02-01T06:53:04;7.10;56.40
15705;DHT22;7952;48.396;12.806;2023-02-01T06:55:30;7.10;56.40
15705;DHT22;7952;48.396;12.806;2023-02-01T06:57:56;7.10;56.40
15705;DHT22;7952;48.396;12.806;2023-02-01T07:00:22;7.20;56.50
15705;DHT22;7952;48.396;12.806;2023-02-01T07:02:48;7.20;56.50
15705;DHT22;7952;48.396;12.806;2023-02-01T07:05:13;7.20;56.40
15705;DHT22;7952;48.396;12.806;2023-02-01T07:07:39;7.20;56.40
15705;DHT22;7952;48.396;12.806;2023-02-01T07:10:05;7.20;56.40
15705;DHT22;7952;48.396;12.806;2023-02-01T07:12:30;7.20;56.40
15705;DHT22;7952;48.396;12.806;2023-02-01T07:14:56;7.20;56.40
15705;DHT22;7952;48.396;12.806;2023-02-01T07:17:22;7.20;56.40
15705;DHT22;7952;48.396;12.806;2023-02-01T07:19:47;7.30;56.50
15705;DHT22;7952;48.396;12.806;2023-02-01T07:22:15;7.30;56.40
15705;DHT22;7952;48.396;12.806;2023-02-01T07:24:41;7.30;56.40
15705;DHT22;7952;48.396;12.806;2023-02-01T07:27:06;7.30;56.40
15705;DHT22;7952;48.396;12.806;2023-02-01T07:29:32;7.40;56.40
15705;DHT22;7952;48.396;12.806;2023-02-01T07:31:57;7.40;56.40
15705;DHT22;7952;48.396;12.806;2023-02-01T07:34:23;7.40;56.40
15705;DHT22;7952;48.396;12.806;2023-02-01T07:36:49;7.40;56.40
15705;DHT22;7952;48.396;12.806;2023-02-01T07:39:14;7.40;56.40
15705;DHT22;7952;48.396;12.806;2023-02-01T07:41:40;7.40;56.40
15705;DHT22;7952;48.396;12.806;2023-02-01T07:44:05;7.50;56.40
15705;DHT22;7952;48.396;12.806;2023-02-01T07:46:31;7.50;56.40
15705;DHT22;7952;48.396;12.806;2023-02-01T07:48:56;7.50;56.40
15705;DHT22;7952;48.396;12.806;2023-02-01T07:51:22;7.50;56.40
15705;DHT22;7952;48.396;12.806;2023-02-01T07:53:48;7.50;56.30
15705;DHT22;7952;48.396;12.806;2023-02-01T07:56:18;7.50;56.30
15705;DHT22;7952;48.396;12.806;2023-02-01T07:58:49;7.50;56.30
15705;DHT22;7952;48.396;12.806;2023-02-01T08:01:16;7.50;56.30
15705;DHT22;7952;48.396;12.806;2023-02-01T08:03:46;7.50;56.30
15705;DHT22;7952;48.396;12.806;2023-02-01T08:06:15;7.60;56.40
15705;DHT22;7952;48.396;12.806;2023-02-01T08:08:50;7.60;56.40
15705;DHT22;7952;48.396;12.806;2023-02-01T08:11:17;7.60;56.30
15705;DHT22;7952;48.396;12.806;2023-02-01T08:13:43;7.60;56.40
15705;DHT22;7952;48.396;12.806;2023-02-01T08:16:10;7.60;56.30
15705;DHT22;7952;48.396;12.806;2023-02-01T08:18:37;7.60;56.30
15705;DHT22;7952;48.396;12.806;2023-02-01T08:21:07;7.60;56.30
15705;DHT22;7952;48.396;12.806;2023-02-01T08:23:39;7.60;56.30
15705;DHT22;7952;48.396;12.806;2023-02-01T08:26:17;7.70;56.40
15705;DHT22;7952;48.396;12.806;2023-02-01T08:28:45;7.70;56.40
15705;DHT22;7952;48.396;12.806;2023-02-01T08:31:13;7.60;56.20
15705;DHT22;7952;48.396;12.806;2023-02-01T08:33:43;7.70;56.30
15705;DHT22;7952;48.396;12.806;2023-02-01T08:36:10;7.70;56.30
15705;DHT22;7952;48.396;12.806;2023-02-01T08:38:37;7.70;56.30
15705;DHT22;7952;48.396;12.806;2023-02-01T08:41:13;7.70;56.30
15705;DHT22;7952;48.396;12.806;2023-02-01T08:43:39;7.70;56.20
15705;DHT22;7952;48.396;12.806;2023-02-01T08:46:06;7.70;56.20
15705;DHT22;7952;48.396;12.806;2023-02-01T08:48:32;7.70;56.20
15705;DHT22;7952;48.396;12.806;2023-02-01T08:51:00;7.80;56.20
15705;DHT22;7952;48.396;12.806;2023-02-01T08:53:26;7.80;56.20
15705;DHT22;7952;48.396;12.806;2023-02-01T08:55:51;7.80;56.20
15705;DHT22;7952;48.396;12.806;2023-02-01T08:58:18;7.80;56.10
15705;DHT22;7952;48.396;12.806;2023-02-01T09:00:44;7.80;56.10
15705;DHT22;7952;48.396;12.806;2023-02-01T09:03:11;7.80;56.10
15705;DHT22;7952;48.396;12.806;2023-02-01T09:05:38;7.90;56.20
15705;DHT22;7952;48.396;12.806;2023-02-01T09:08:04;7.90;56.20
15705;DHT22;7952;48.396;12.806;2023-02-01T09:10:30;7.90;56.20
15705;DHT22;7952;48.396;12.806;2023-02-01T09:12:55;7.90;56.20
15705;DHT22;7952;48.396;12.806;2023-02-01T09:15:21;7.90;56.30
15705;DHT22;7952;48.396;12.806;2023-02-01T09:17:46;7.90;56.20
15705;DHT22;7952;48.396;12.806;2023-02-01T09:20:12;8.00;56.30
15705;DHT22;7952;48.396;12.806;2023-02-01T09:22:38;7.90;56.20
15705;DHT22;7952;48.396;12.806;2023-02-01T09:25:04;8.00;56.30
15705;DHT22;7952;48.396;12.806;2023-02-01T09:27:29;8.00;56.30
15705;DHT22;7952;48.396;12.806;2023-02-01T09:29:55;8.00;56.30
15705;DHT22;7952;48.396;12.806;2023-02-01T09:32:22;8.00;56.30
15705;DHT22;7952;48.396;12.806;2023-02-01T09:34:51;8.00;56.30
15705;DHT22;7952;48.396;12.806;2023-02-01T09:37:17;8.00;56.30
15705;DHT22;7952;48.396;12.806;2023-02-01T09:39:43;8.00;56.30
15705;DHT22;7952;48.396;12.806;2023-02-01T09:47:48;8.10;56.40
15705;DHT22;7952;48.396;12.806;2023-02-01T09:50:18;8.10;56.50
15705;DHT22;7952;48.396;12.806;2023-02-01T09:52:55;8.10;56.40
15705;DHT22;7952;48.396;12.806;2023-02-01T09:58:06;8.20;56.30
15705;DHT22;7952;48.396;12.806;2023-02-01T10:00:38;8.20;56.30
15705;DHT22;7952;48.396;12.806;2023-02-01T10:03:04;8.30;56.30
15705;DHT22;7952;48.396;12.806;2023-02-01T10:08:38;8.30;56.20
15705;DHT22;7952;48.396;12.806;2023-02-01T10:14:08;8.40;56.10
15705;DHT22;7952;48.396;12.806;2023-02-01T10:21:58;8.50;56.10
15705;DHT22;7952;48.396;12.806;2023-02-01T10:24:34;8.60;56.00
15705;DHT22;7952;48.396;12.806;2023-02-01T10:27:22;8.60;55.90
15705;DHT22;7952;48.396;12.806;2023-02-01T10:29:55;8.70;56.00
15705;DHT22;7952;48.396;12.806;2023-02-01T10:32:29;8.70;55.80
15705;DHT22;7952;48.396;12.806;2023-02-01T10:34:58;8.80;55.90
15705;DHT22;7952;48.396;12.806;2023-02-01T10:37:28;8.80;55.80
15705;DHT22;7952;48.396;12.806;2023-02-01T10:39:56;8.90;55.80
15705;DHT22;7952;48.396;12.806;2023-02-01T10:42:26;8.90;55.70
15705;DHT22;7952;48.396;12.806;2023-02-01T10:44:53;8.90;55.70
15705;DHT22;7952;48.396;12.806;2023-02-01T10:47:19;8.90;55.60
15705;DHT22;7952;48.396;12.806;2023-02-01T10:52:54;8.90;55.50
15705;DHT22;7952;48.396;12.806;2023-02-01T10:55:27;8.90;55.50
15705;DHT22;7952;48.396;12.806;2023-02-01T10:58:01;8.90;56.10
15705;DHT22;7952;48.396;12.806;2023-02-01T11:00:28;8.80;55.50
15705;DHT22;7952;48.396;12.806;2023-02-01T11:02:59;8.80;55.50
15705;DHT22;7952;48.396;12.806;2023-02-01T11:05:24;8.80;55.50
15705;DHT22;7952;48.396;12.806;2023-02-01T11:07:53;8.80;55.50
15705;DHT22;7952;48.396;12.806;2023-02-01T11:10:37;8.70;55.50
15705;DHT22;7952;48.396;12.806;2023-02-01T11:13:03;8.70;55.50
15705;DHT22;7952;48.396;12.806;2023-02-01T11:15:29;8.70;55.60
15705;DHT22;7952;48.396;12.806;2023-02-01T11:17:55;8.70;55.60
15705;DHT22;7952;48.396;12.806;2023-02-01T11:20:38;8.60;55.50
15705;DHT22;7952;48.396;12.806;2023-02-01T11:23:11;8.60;55.50
15705;DHT22;7952;48.396;12.806;2023-02-01T11:25:38;8.60;55.60
15705;DHT22;7952;48.396;12.806;2023-02-01T11:28:04;8.50;55.50
15705;DHT22;7952;48.396;12.806;2023-02-01T11:30:34;8.50;55.50
15705;DHT22;7952;48.396;12.806;2023-02-01T11:33:03;8.50;55.60
15705;DHT22;7952;48.396;12.806;2023-02-01T11:35:30;8.40;55.50
15705;DHT22;7952;48.396;12.806;2023-02-01T11:37:58;8.40;55.50
15705;DHT22;7952;48.396;12.806;2023-02-01T11:40:37;8.40;55.60
15705;DHT22;7952;48.396;12.806;2023-02-01T11:43:25;8.40;55.60
15705;DHT22;7952;48.396;12.806;2023-02-01T11:46:02;8.30;55.60
15705;DHT22;7952;48.396;12.806;2023-02-01T11:48:30;8.30;55.70
15705;DHT22;7952;48.396;12.806;2023-02-01T12:07:21;8.30;55.90
15705;DHT22;7952;48.396;12.806;2023-02-01T12:09:56;8.30;55.90
15705;DHT22;7952;48.396;12.806;2023-02-01T12:25:28;8.30;55.90
15705;DHT22;7952;48.396;12.806;2023-02-01T12:39:32;8.20;55.90
15705;DHT22;7952;48.396;12.806;2023-02-01T12:42:14;8.20;55.90
15705;DHT22;7952;48.396;12.806;2023-02-01T12:44:50;8.20;56.00
15705;DHT22;7952;48.396;12.806;2023-02-01T12:47:33;8.20;56.00
15705;DHT22;7952;48.396;12.806;2023-02-01T12:50:05;8.20;56.00
15705;DHT22;7952;48.396;12.806;2023-02-01T12:52:48;8.20;56.00
15705;DHT22;7952;48.396;12.806;2023-02-01T12:55:36;8.20;55.90
15705;DHT22;7952;48.396;12.806;2023-02-01T13:00:44;8.30;55.90
15705;DHT22;7952;48.396;12.806;2023-02-01T13:03:26;8.30;55.80
15705;DHT22;7952;48.396;12.806;2023-02-01T13:08:50;8.30;55.80
15705;DHT22;7952;48.396;12.806;2023-02-01T13:11:37;8.30;55.70
15705;DHT22;7952;48.396;12.806;2023-02-01T13:14:27;8.30;55.70
15705;DHT22;7952;48.396;12.806;2023-02-01T13:17:00;8.30;55.70
15705;DHT22;7952;48.396;12.806;2023-02-01T13:19:44;8.30;55.70
15705;DHT22;7952;48.396;12.806;2023-02-01T13:22:19;8.30;55.70
15705;DHT22;7952;48.396;12.806;2023-02-01T13:24:57;8.30;55.60
15705;DHT22;7952;48.396;12.806;2023-02-01T13:27:26;8.30;55.60
15705;DHT22;7952;48.396;12.806;2023-02-01T13:29:59;8.30;55.60
15705;DHT22;7952;48.396;12.806;2023-02-01T13:32:42;8.30;55.60
15705;DHT22;7952;48.396;12.806;2023-02-01T13:41:39;8.30;55.70
15705;DHT22;7952;48.396;12.806;2023-02-01T13:44:15;8.20;55.80
15705;DHT22;7952;48.396;12.806;2023-02-01T13:46:44;8.20;55.70
15705;DHT22;7952;48.396;12.806;2023-02-01T13:49:37;8.20;55.70
15705;DHT22;7952;48.396;12.806;2023-02-01T13:52:04;8.20;55.70
15705;DHT22;7952;48.396;12.806;2023-02-01T13:54:37;8.20;55.70
15705;DHT22;7952;48.396;12.806;2023-02-01T13:57:06;8.20;55.70
15705;DHT22;7952;48.396;12.806;2023-02-01T14:05:12;8.30;55.70
15705;DHT22;7952;48.396;12.806;2023-02-01T14:21:29;8.20;55.50
15705;DHT22;7952;48.396;12.806;2023-02-01T14:29:07;8.20;55.50
15705;DHT22;7952;48.396;12.806;2023-02-01T14:31:39;8.20;55.50
15705;DHT22;7952;48.396;12.806;2023-02-01T14:34:16;8.20;55.50
15705;DHT22;7952;48.396;12.806;2023-02-01T14:36:46;8.10;55.40
15705;DHT22;7952;48.396;12.806;2023-02-01T14:39:25;8.20;55.50
15705;DHT22;7952;48.396;12.806;2023-02-01T14:41:57;8.20;55.40
15705;DHT22;7952;48.396;12.806;2023-02-01T14:44:30;8.20;55.50
15705;DHT22;7952;48.396;12.806;2023-02-01T14:47:10;8.10;55.40
15705;DHT22;7952;48.396;12.806;2023-02-01T14:49:47;8.20;55.40
15705;DHT22;7952;48.396;12.806;2023-02-01T14:52:17;8.10;55.30
15705;DHT22;7952;48.396;12.806;2023-02-01T14:55:04;8.20;55.40
15705;DHT22;7952;48.396;12.806;2023-02-01T14:57:34;8.10;55.40
15705;DHT22;7952;48.396;12.806;2023-02-01T15:00:08;8.20;55.40
15705;DHT22;7952;48.396;12.806;2023-02-01T15:02:35;8.10;55.30
15705;DHT22;7952;48.396;12.806;2023-02-01T15:05:01;8.10;55.30
15705;DHT22;7952;48.396;12.806;2023-02-01T15:07:28;8.20;55.30
15705;DHT22;7952;48.396;12.806;2023-02-01T15:09:57;8.20;55.20
15705;DHT22;7952;48.396;12.806;2023-02-01T15:12:25;8.20;55.20
15705;DHT22;7952;48.396;12.806;2023-02-01T15:15:17;8.20;55.20
15705;DHT22;7952;48.396;12.806;2023-02-01T15:17:57;8.20;55.10
15705;DHT22;7952;48.396;12.806;2023-02-01T15:20:26;8.20;55.10
15705;DHT22;7952;48.396;12.806;2023-02-01T15:25:20;8.20;55.20
15705;DHT22;7952;48.396;12.806;2023-02-01T15:27:46;8.10;55.10
15705;DHT22;7952;48.396;12.806;2023-02-01T15:32:50;8.10;55.10
15705;DHT22;7952;48.396;12.806;2023-02-01T15:35:53;8.10;55.10
15705;DHT22;7952;48.396;12.806;2023-02-01T15:41:11;8.10;55.10
15705;DHT22;7952;48.396;12.806;2023-02-01T15:43:44;8.00;55.10
15705;DHT22;7952;48.396;12.806;2023-02-01T15:46:20;8.10;55.20
15705;DHT22;7952;48.396;12.806;2023-02-01T15:48:48;8.00;55.10
15705;DHT22;7952;48.396;12.806;2023-02-01T15:51:20;8.00;55.10
15705;DHT22;7952;48.396;12.806;2023-02-01T15:53:58;8.00;55.10
15705;DHT22;7952;48.396;12.806;2023-02-01T15:56:32;8.00;55.10
15705;DHT22;7952;48.396;12.806;2023-02-01T15:59:00;8.00;55.10
15705;DHT22;7952;48.396;12.806;2023-02-01T16:01:27;8.00;55.10
15705;DHT22;7952;48.396;12.806;2023-02-01T16:04:22;8.00;55.10
15705;DHT22;7952;48.396;12.806;2023-02-01T16:09:17;7.90;55.10
15705;DHT22;7952;48.396;12.806;2023-02-01T16:11:58;7.90;55.00
15705;DHT22;7952;48.396;12.806;2023-02-01T16:14:25;7.90;55.10
15705;DHT22;7952;48.396;12.806;2023-02-01T16:16:52;7.90;55.10
15705;DHT22;7952;48.396;12.806;2023-02-01T16:19:18;7.90;55.10
15705;DHT22;7952;48.396;12.806;2023-02-01T16:21:44;7.90;55.10
15705;DHT22;7952;48.396;12.806;2023-02-01T16:24:09;7.90;55.10
15705;DHT22;7952;48.396;12.806;2023-02-01T16:26:35;7.90;55.10
15705;DHT22;7952;48.396;12.806;2023-02-01T16:29:01;7.90;55.10
15705;DHT22;7952;48.396;12.806;2023-02-01T16:31:34;7.80;55.00
15705;DHT22;7952;48.396;12.806;2023-02-01T16:34:01;7.80;55.00
15705;DHT22;7952;48.396;12.806;2023-02-01T16:36:26;7.80;55.00
15705;DHT22;7952;48.396;12.806;2023-02-01T16:38:54;7.80;55.00
15705;DHT22;7952;48.396;12.806;2023-02-01T16:41:21;7.80;55.10
15705;DHT22;7952;48.396;12.806;2023-02-01T16:43:52;7.80;55.00
15705;DHT22;7952;48.396;12.806;2023-02-01T16:46:21;7.80;54.90
15705;DHT22;7952;48.396;12.806;2023-02-01T16:48:57;7.80;54.90
15705;DHT22;7952;48.396;12.806;2023-02-01T16:51:25;7.90;55.00
15705;DHT22;7952;48.396;12.806;2023-02-01T16:53:51;7.80;54.90
15705;DHT22;7952;48.396;12.806;2023-02-01T16:56:20;7.80;54.90
15705;DHT22;7952;48.396;12.806;2023-02-01T16:58:46;7.80;54.90
15705;DHT22;7952;48.396;12.806;2023-02-01T17:01:14;7.80;54.90
15705;DHT22;7952;48.396;12.806;2023-02-01T17:03:41;7.80;54.90
15705;DHT22;7952;48.396;12.806;2023-02-01T17:06:10;7.80;54.90
15705;DHT22;7952;48.396;12.806;2023-02-01T17:08:38;7.80;54.90
15705;DHT22;7952;48.396;12.806;2023-02-01T17:11:06;7.80;54.90
15705;DHT22;7952;48.396;12.806;2023-02-01T17:13:32;7.80;54.90
15705;DHT22;7952;48.396;12.806;2023-02-01T17:16:03;7.80;54.90
15705;DHT22;7952;48.396;12.806;2023-02-01T17:18:32;7.80;54.90
15705;DHT22;7952;48.396;12.806;2023-02-01T17:21:00;7.80;54.90
15705;DHT22;7952;48.396;12.806;2023-02-01T17:23:26;7.80;54.90
15705;DHT22;7952;48.396;12.806;2023-02-01T17:25:52;7.80;54.90
15705;DHT22;7952;48.396;12.806;2023-02-01T17:28:17;7.80;54.80
15705;DHT22;7952;48.396;12.806;2023-02-01T17:30:43;7.90;54.90
15705;DHT22;7952;48.396;12.806;2023-02-01T17:33:26;7.90;54.90
15705;DHT22;7952;48.396;12.806;2023-02-01T17:35:54;7.90;54.80
15705;DHT22;7952;48.396;12.806;2023-02-01T17:38:19;7.90;54.80
15705;DHT22;7952;48.396;12.806;2023-02-01T17:40:45;7.90;54.80
15705;DHT22;7952;48.396;12.806;2023-02-01T17:43:13;7.90;54.80
15705;DHT22;7952;48.396;12.806;2023-02-01T17:45:47;7.90;54.80
15705;DHT22;7952;48.396;12.806;2023-02-01T17:48:18;7.90;54.80
15705;DHT22;7952;48.396;12.806;2023-02-01T17:50:44;7.90;54.70
15705;DHT22;7952;48.396;12.806;2023-02-01T17:53:12;7.90;54.70
15705;DHT22;7952;48.396;12.806;2023-02-01T17:55:41;7.90;54.70
15705;DHT22;7952;48.396;12.806;2023-02-01T17:58:09;7.90;54.70
15705;DHT22;7952;48.396;12.806;2023-02-01T18:00:35;7.90;54.70
15705;DHT22;7952;48.396;12.806;2023-02-01T18:03:01;7.90;54.70
15705;DHT22;7952;48.396;12.806;2023-02-01T18:05:38;7.90;54.60
15705;DHT22;7952;48.396;12.806;2023-02-01T18:08:06;7.90;54.60
15705;DHT22;7952;48.396;12.806;2023-02-01T18:10:32;7.90;54.70
15705;DHT22;7952;48.396;12.806;2023-02-01T18:12:57;7.90;54.60
15705;DHT22;7952;48.396;12.806;2023-02-01T18:15:24;7.80;54.60
15705;DHT22;7952;48.396;12.806;2023-02-01T18:17:50;7.90;54.70
15705;DHT22;7952;48.396;12.806;2023-02-01T18:20:19;7.90;54.60